Time;durP1;ratioP1;P1;durP2;ratioP2;P2;SDS_P1;SDS_P2;PMS_P1;PMS_P2;Temp;Humidity;BMP_temperature;BMP_pressure;BME280_temperature;BME280_humidity;BME280_pressure;Samples;Min_cycle;Max_cycle;Signal;HPM_P1;HPM_P2
2022/07/13 00:01:06;;;;;;;0.30;0.30;;;;;;;18.99;69.28;96222.84;4353666;32;20203;-65
2022/07/13 00:03:39;;;;;;;1.20;0.63;;;;;;;18.86;70.12;96219.28;4354429;32;20224;-65
2022/07/13 00:06:07;;;;;;;0.53;0.53;;;;;;;18.94;70.16;96218.44;4368617;32;20192;-65
2022/07/13 00:08:34;;;;;;;0.40;0.40;;;;;;;18.89;70.09;96221.34;4370537;32;20189;-65
2022/07/13 00:10:59;;;;;;;1.00;0.83;;;;;;;18.82;70.44;96223.72;4358423;32;20195;-65
2022/07/13 00:13:25;;;;;;;0.23;0.23;;;;;;;18.87;70.33;96220.87;4349286;32;20189;-65
2022/07/13 00:15:52;;;;;;;0.80;0.80;;;;;;;18.87;70.65;96215.50;4364281;32;20193;-64
2022/07/13 00:18:18;;;;;;;0.27;0.27;;;;;;;18.89;70.24;96224.03;4331721;32;20209;-64
2022/07/13 00:20:48;;;;;;;0.40;0.40;;;;;;;18.92;70.39;96217.97;4345827;32;20212;-65
2022/07/13 00:23:18;;;;;;;1.47;0.77;;;;;;;18.94;70.65;96207.69;4348679;32;20256;-65
2022/07/13 00:25:45;;;;;;;0.50;0.50;;;;;;;18.64;70.72;96206.09;4357615;32;21113;-65
2022/07/13 00:28:13;;;;;;;0.10;0.10;;;;;;;18.74;71.38;96206.50;4347265;32;20247;-64
2022/07/13 00:30:38;;;;;;;0.80;0.70;;;;;;;18.69;71.49;96209.41;4340492;32;20271;-66
2022/07/13 00:33:05;;;;;;;0.30;0.30;;;;;;;18.64;71.35;96198.81;4366628;32;20204;-65
2022/07/13 00:35:34;;;;;;;0.43;0.43;;;;;;;18.59;71.94;96198.19;4371375;32;20199;-65
2022/07/13 00:38:01;;;;;;;0.73;0.73;;;;;;;18.73;71.50;96190.72;4356509;32;20230;-65
2022/07/13 00:40:28;;;;;;;0.47;0.47;;;;;;;18.57;71.52;96198.50;4348462;32;20197;-65
2022/07/13 00:42:57;;;;;;;0.60;0.60;;;;;;;18.67;71.90;96203.56;4348390;32;20230;-63
2022/07/13 00:45:24;;;;;;;0.80;0.80;;;;;;;18.69;71.46;96192.50;4375351;32;20208;-64
2022/07/13 00:47:50;;;;;;;0.10;0.10;;;;;;;18.59;72.14;96199.00;4356791;32;20212;-64
2022/07/13 00:50:16;;;;;;;0.10;0.10;;;;;;;18.72;71.40;96197.19;4365085;32;20271;-65
2022/07/13 00:52:45;;;;;;;0.27;0.27;;;;;;;18.65;71.86;96194.25;4346123;32;20235;-65
2022/07/13 00:55:13;;;;;;;0.50;0.50;;;;;;;18.63;71.85;96194.56;4349658;32;20184;-65
2022/07/13 00:57:43;;;;;;;0.20;0.20;;;;;;;18.42;71.98;96197.16;4350994;32;20242;-65
2022/07/13 01:00:16;;;;;;;0.43;0.43;;;;;;;18.35;72.65;96202.22;4341052;32;20231;-64
2022/07/13 01:02:43;;;;;;;0.77;0.27;;;;;;;18.45;72.58;96196.50;4361167;32;20196;-65
2022/07/13 01:05:18;;;;;;;0.17;0.17;;;;;;;18.45;73.09;96195.72;4370776;32;20189;-65
2022/07/13 01:07:46;;;;;;;0.20;0.20;;;;;;;18.49;72.52;96189.37;4366478;32;20262;-65
2022/07/13 01:10:13;;;;;;;0.10;0.10;;;;;;;18.49;72.76;96192.06;4359614;32;20246;-64
2022/07/13 01:12:43;;;;;;;2.67;0.43;;;;;;;18.33;72.38;96192.88;4361340;32;20326;-65
2022/07/13 01:15:11;;;;;;;0.40;0.40;;;;;;;18.43;73.03;96190.66;4364284;32;20211;-65
2022/07/13 01:17:39;;;;;;;0.17;0.17;;;;;;;18.52;72.38;96190.59;4367936;32;20177;-65
2022/07/13 01:20:09;;;;;;;3.60;0.83;;;;;;;18.50;72.27;96190.94;4354868;32;20199;-65
2022/07/13 01:22:48;;;;;;;0.37;0.37;;;;;;;18.47;72.25;96193.50;4371483;32;20184;-65
2022/07/13 01:25:16;;;;;;;0.20;0.20;;;;;;;18.48;72.40;96187.81;4368545;32;20274;-64
2022/07/13 01:27:45;;;;;;;0.50;0.50;;;;;;;18.27;72.14;96191.50;4371729;32;20197;-64
2022/07/13 01:30:11;;;;;;;0.23;0.23;;;;;;;18.16;72.23;96191.03;4356589;32;20189;-65
2022/07/13 01:32:50;;;;;;;0.47;0.47;;;;;;;18.19;73.36;96187.72;4347979;32;20193;-65
2022/07/13 01:35:17;;;;;;;0.53;0.53;;;;;;;18.23;73.55;96182.50;4300050;32;20193;-65
2022/07/13 01:37:46;;;;;;;0.10;0.10;;;;;;;18.40;73.85;96185.13;4354182;32;20247;-66
2022/07/13 01:40:13;;;;;;;2.43;0.80;;;;;;;18.29;73.68;96190.06;4373359;32;20216;-65
2022/07/13 01:42:44;;;;;;;0.63;0.63;;;;;;;18.38;73.19;96190.81;4368611;32;20189;-65
2022/07/13 01:45:10;;;;;;;0.03;0.03;;;;;;;18.44;72.75;96192.25;4347274;32;20192;-65
2022/07/13 01:47:45;;;;;;;0.40;0.40;;;;;;;18.29;72.96;96195.44;4355302;32;20204;-65
2022/07/13 01:50:19;;;;;;;0.30;0.30;;;;;;;18.08;73.78;96194.56;4353834;32;20214;-65
2022/07/13 01:52:45;;;;;;;0.33;0.33;;;;;;;18.19;73.86;96196.56;4346836;32;20432;-65
2022/07/13 01:55:14;;;;;;;0.10;0.10;;;;;;;18.34;73.81;96200.63;4339162;32;20211;-65
2022/07/13 01:57:40;;;;;;;0.10;0.10;;;;;;;18.19;73.76;96193.09;4358519;32;20230;-65
2022/07/13 02:00:20;;;;;;;0.23;0.23;;;;;;;18.10;74.00;96195.00;4361476;32;20201;-65
2022/07/13 02:02:48;;;;;;;0.17;0.17;;;;;;;18.03;73.67;96192.03;4334540;32;20260;-65
2022/07/13 02:05:17;;;;;;;0.37;0.37;;;;;;;18.10;74.13;96182.37;4336119;32;20281;-65
2022/07/13 02:07:45;;;;;;;0.20;0.20;;;;;;;18.22;73.92;96195.16;4350218;32;20242;-65
2022/07/13 02:10:12;;;;;;;0.43;0.43;;;;;;;18.22;73.84;96187.09;4345351;32;20195;-65
2022/07/13 02:12:40;;;;;;;0.20;0.20;;;;;;;18.03;74.15;96192.03;4342540;32;20201;-65
2022/07/13 02:15:14;;;;;;;0.30;0.30;;;;;;;18.18;74.23;96195.00;4337383;32;20248;-65
2022/07/13 02:17:40;;;;;;;1.10;0.77;;;;;;;18.16;74.08;96188.38;4353384;32;20223;-65
2022/07/13 02:20:09;;;;;;;0.53;0.53;;;;;;;18.17;74.13;96192.63;4351454;32;20271;-65
2022/07/13 02:22:45;;;;;;;0.33;0.33;;;;;;;18.02;74.59;96185.09;4347491;32;20185;-65
2022/07/13 02:25:14;;;;;;;0.20;0.20;;;;;;;18.17;74.53;96179.97;4365614;32;20246;-65
2022/07/13 02:27:42;;;;;;;1.23;0.50;;;;;;;18.14;74.38;96193.25;4364193;32;20203;-65
2022/07/13 02:30:14;;;;;;;0.40;0.40;;;;;;;18.26;74.24;96189.94;4348621;32;20182;-64
2022/07/13 02:32:42;;;;;;;0.40;0.40;;;;;;;18.18;73.94;96194.19;4367770;32;20192;-65
2022/07/13 02:35:10;;;;;;;0.20;0.10;;;;;;;18.07;74.47;96191.09;4374097;32;20200;-64
2022/07/13 02:37:38;;;;;;;0.30;0.30;;;;;;;18.06;74.62;96191.41;4355449;32;20222;-64
2022/07/13 02:40:10;;;;;;;0.50;0.50;;;;;;;18.19;74.39;96187.72;4363015;32;20192;-65
2022/07/13 02:42:38;;;;;;;0.40;0.40;;;;;;;18.15;74.16;96184.09;4365030;32;20184;-65
2022/07/13 02:45:07;;;;;;;0.53;0.53;;;;;;;18.13;74.28;96186.31;4373094;32;20282;-65
2022/07/13 02:47:34;;;;;;;0.20;0.20;;;;;;;18.01;74.72;96186.19;4347080;32;20185;-64
2022/07/13 02:50:07;;;;;;;0.13;0.13;;;;;;;18.11;74.39;96183.16;4312479;32;20235;-65
2022/07/13 02:52:32;;;;;;;0.23;0.23;;;;;;;17.89;75.14;96191.41;4366701;32;20277;-64
2022/07/13 02:55:00;;;;;;;0.10;0.10;;;;;;;17.99;75.45;96185.72;4370929;32;20189;-64
2022/07/13 02:57:25;;;;;;;0.17;0.17;;;;;;;18.04;75.02;96186.34;4344206;32;20247;-64
2022/07/13 02:59:51;;;;;;;0.20;0.20;;;;;;;17.94;75.66;96181.31;4361292;32;20204;-65
2022/07/13 03:02:19;;;;;;;0.40;0.40;;;;;;;17.96;75.08;96180.97;4370899;32;20306;-65
2022/07/13 03:04:46;;;;;;;0.20;0.20;;;;;;;17.91;75.51;96176.56;4366636;32;20303;-65
2022/07/13 03:07:12;;;;;;;0.40;0.40;;;;;;;17.97;74.79;96177.19;4366813;32;20184;-65
2022/07/13 03:09:39;;;;;;;0.40;0.40;;;;;;;17.90;74.68;96171.50;4357464;32;20238;-65
2022/07/13 03:12:09;;;;;;;0.30;0.30;;;;;;;17.90;75.40;96168.81;4362730;32;20207;-65
2022/07/13 03:14:36;;;;;;;0.30;0.20;;;;;;;17.87;75.25;96168.34;4371710;32;20191;-65
2022/07/13 03:17:02;;;;;;;0.17;0.17;;;;;;;17.93;75.33;96171.66;4339344;32;20299;-64
2022/07/13 03:19:31;;;;;;;0.50;0.50;;;;;;;18.02;74.92;96174.34;4369243;32;20184;-64
2022/07/13 03:21:58;;;;;;;0.27;0.27;;;;;;;18.06;74.86;96176.06;4358227;32;20342;-63
2022/07/13 03:24:28;;;;;;;0.87;0.60;;;;;;;17.90;75.06;96176.88;4371092;32;20196;-63
2022/07/13 03:26:53;;;;;;;0.43;0.40;;;;;;;17.93;75.35;96190.47;4371137;32;20173;-63
2022/07/13 03:29:18;;;;;;;0.40;0.40;;;;;;;17.91;74.69;96189.19;4350348;32;20199;-64
2022/07/13 03:31:44;;;;;;;0.27;0.27;;;;;;;17.85;75.13;96181.34;4368783;32;20196;-64
2022/07/13 03:34:13;;;;;;;0.07;0.07;;;;;;;17.77;75.98;96184.81;4373278;32;20188;-64
2022/07/13 03:36:40;;;;;;;1.50;0.50;;;;;;;17.96;75.34;96180.97;4356974;32;20180;-64
2022/07/13 03:39:05;;;;;;;0.50;0.50;;;;;;;17.99;75.18;96186.50;4335157;32;20240;-64
2022/07/13 03:41:34;;;;;;;0.30;0.30;;;;;;;17.96;75.51;96189.81;4367347;32;20191;-64
2022/07/13 03:43:59;;;;;;;0.27;0.27;;;;;;;17.87;75.31;96193.66;4365412;32;20196;-64
2022/07/13 03:46:27;;;;;;;0.20;0.20;;;;;;;17.87;75.48;96189.81;4377984;32;20191;-63
2022/07/13 03:48:55;;;;;;;0.10;0.10;;;;;;;17.91;75.32;96195.34;4370429;32;20218;-64
2022/07/13 03:51:21;;;;;;;0.20;0.20;;;;;;;17.89;75.40;96196.78;4369328;32;20173;-64
2022/07/13 03:53:48;;;;;;;0.50;0.50;;;;;;;17.83;75.61;96194.28;4367507;32;20184;-64
2022/07/13 03:56:13;;;;;;;0.30;0.30;;;;;;;17.77;75.97;96194.75;4326704;32;22134;-64
2022/07/13 03:58:41;;;;;;;6.57;0.50;;;;;;;17.78;75.01;96197.13;4361248;32;20180;-63
2022/07/13 04:01:08;;;;;;;0.30;0.30;;;;;;;17.83;75.56;96198.84;4358275;32;20208;-64
2022/07/13 04:03:34;;;;;;;0.10;0.10;;;;;;;17.94;75.20;96189.34;4319573;32;20313;-64
2022/07/13 04:06:01;;;;;;;0.47;0.47;;;;;;;17.86;74.54;96190.16;4361611;32;20210;-64
2022/07/13 04:08:27;;;;;;;0.10;0.10;;;;;;;17.82;74.77;96191.91;4359773;32;20265;-64
2022/07/13 04:10:52;;;;;;;0.30;0.30;;;;;;;17.83;75.30;96185.44;4371284;32;20189;-64
2022/07/13 04:13:19;;;;;;;1.03;0.93;;;;;;;17.79;75.79;96187.97;4368741;32;20211;-64
2022/07/13 04:15:45;;;;;;;0.23;0.23;;;;;;;17.79;75.09;96185.28;4364363;32;20249;-67
2022/07/13 04:18:10;;;;;;;0.23;0.23;;;;;;;17.91;75.15;96178.47;4361139;32;20196;-66
2022/07/13 04:20:37;;;;;;;0.20;0.20;;;;;;;17.87;75.08;96177.53;4363460;32;20181;-65
2022/07/13 04:23:05;;;;;;;0.37;0.37;;;;;;;17.85;75.73;96173.28;4354855;32;20227;-64
2022/07/13 04:25:31;;;;;;;2.47;0.57;;;;;;;17.82;75.23;96170.44;4370185;32;20195;-64
2022/07/13 04:28:01;;;;;;;0.13;0.13;;;;;;;17.90;74.79;96166.94;4346827;32;20181;-63
2022/07/13 04:30:27;;;;;;;14.40;0.80;;;;;;;17.88;74.81;96166.44;4337225;32;20203;-64
2022/07/13 04:32:55;;;;;;;0.20;0.20;;;;;;;17.76;75.24;96174.37;4342326;32;20186;-64
2022/07/13 04:35:21;;;;;;;0.57;0.57;;;;;;;17.78;75.89;96172.97;4334977;32;20204;-64
2022/07/13 04:37:47;;;;;;;0.30;0.30;;;;;;;17.77;75.93;96167.91;4361835;32;20306;-65
2022/07/13 04:40:13;;;;;;;1.40;0.60;;;;;;;17.97;75.16;96153.81;4359178;32;20233;-64
2022/07/13 04:42:40;;;;;;;0.30;0.30;;;;;;;17.91;75.02;96159.66;4367380;32;20212;-64
2022/07/13 04:45:09;;;;;;;0.53;0.53;;;;;;;17.80;75.30;96157.31;4345000;32;20196;-64
2022/07/13 04:47:38;;;;;;;1.07;0.30;;;;;;;17.93;74.68;96154.75;4336500;32;20228;-64
2022/07/13 04:50:11;;;;;;;0.50;0.50;;;;;;;17.83;74.67;96156.69;4364656;32;20292;-64
2022/07/13 04:52:38;;;;;;;0.20;0.20;;;;;;;17.87;75.08;96156.84;4358600;32;20233;-64
2022/07/13 04:55:05;;;;;;;0.30;0.30;;;;;;;17.99;74.74;96146.22;4342255;32;20322;-63
2022/07/13 04:57:33;;;;;;;8.63;0.60;;;;;;;18.11;74.61;96148.25;4341908;32;20224;-64
2022/07/13 05:00:03;;;;;;;0.57;0.57;;;;;;;18.15;75.12;96157.25;4370630;32;20184;-64
2022/07/13 05:02:29;;;;;;;0.27;0.27;;;;;;;17.95;74.30;96147.19;4355435;32;20246;-63
2022/07/13 05:04:55;;;;;;;0.40;0.40;;;;;;;18.15;74.28;96151.87;4353531;32;20184;-63
2022/07/13 05:07:21;;;;;;;0.10;0.10;;;;;;;18.14;74.66;96144.91;4363811;32;20209;-64
2022/07/13 05:09:46;;;;;;;1.00;0.70;;;;;;;18.23;74.97;96152.97;4345707;32;20244;-64
2022/07/13 05:12:13;;;;;;;0.13;0.13;;;;;;;18.18;73.84;96141.28;4356625;32;20177;-64
2022/07/13 05:14:39;;;;;;;0.43;0.43;;;;;;;18.23;74.23;96145.69;4365881;32;20180;-64
2022/07/13 05:17:04;;;;;;;0.10;0.10;;;;;;;18.27;73.76;96146.63;4373225;32;20176;-64
2022/07/13 05:19:30;;;;;;;0.40;0.40;;;;;;;18.23;73.75;96137.63;4346117;32;20215;-64
2022/07/13 05:21:57;;;;;;;0.30;0.30;;;;;;;18.27;73.88;96135.88;4334635;32;20181;-64
2022/07/13 05:24:25;;;;;;;7.00;0.87;;;;;;;18.36;73.84;96136.63;4318274;32;20223;-63
2022/07/13 05:26:51;;;;;;;1.67;0.60;;;;;;;18.28;73.74;96139.34;4348560;32;20315;-63
2022/07/13 05:29:16;;;;;;;0.37;0.37;;;;;;;18.44;73.05;96135.81;4359081;32;20264;-64
2022/07/13 05:31:44;;;;;;;0.60;0.60;;;;;;;18.45;73.14;96144.66;4370264;32;20201;-64
2022/07/13 05:34:09;;;;;;;0.20;0.20;;;;;;;18.47;72.97;96148.59;4348915;32;20266;-64
2022/07/13 05:36:37;;;;;;;0.40;0.30;;;;;;;18.52;72.82;96144.91;4366079;32;20184;-65
2022/07/13 05:39:04;;;;;;;0.37;0.37;;;;;;;18.50;73.66;96153.31;4351203;32;20247;-65
2022/07/13 05:41:32;;;;;;;0.27;0.27;;;;;;;18.54;73.63;96150.75;4345029;32;20199;-64
2022/07/13 05:43:59;;;;;;;0.47;0.47;;;;;;;18.58;73.43;96150.91;4365056;32;20228;-64
2022/07/13 05:46:26;;;;;;;0.40;0.40;;;;;;;18.65;71.95;96143.16;4373085;32;20241;-64
2022/07/13 05:48:53;;;;;;;0.20;0.20;;;;;;;18.71;71.89;96147.22;4357960;32;20231;-64
2022/07/13 05:51:18;;;;;;;1.60;0.50;;;;;;;18.72;72.51;96141.53;4349434;32;20196;-64
2022/07/13 05:53:46;;;;;;;0.53;0.53;;;;;;;18.76;71.51;96144.34;4358884;32;20289;-64
2022/07/13 05:56:16;;;;;;;0.50;0.50;;;;;;;18.86;71.76;96141.31;4346543;32;20203;-64
2022/07/13 05:58:43;;;;;;;0.47;0.43;;;;;;;18.91;71.59;96138.44;4366001;32;20195;-63
2022/07/13 06:01:10;;;;;;;0.30;0.30;;;;;;;18.94;72.09;96137.75;4367500;32;20217;-63
2022/07/13 06:03:36;;;;;;;0.60;0.60;;;;;;;19.00;70.80;96141.06;4356293;32;20313;-63
2022/07/13 06:06:05;;;;;;;0.73;0.73;;;;;;;19.04;71.21;96134.69;4339159;32;20192;-63
2022/07/13 06:08:36;;;;;;;0.63;0.63;;;;;;;19.09;70.92;96126.44;4349037;32;20263;-63
2022/07/13 06:11:05;;;;;;;0.40;0.40;;;;;;;19.14;70.88;96128.13;4353632;32;20255;-64
2022/07/13 06:13:32;;;;;;;2.90;1.13;;;;;;;19.20;71.44;96122.25;4347615;32;20247;-64
2022/07/13 06:15:59;;;;;;;1.93;0.60;;;;;;;19.28;71.03;96117.12;4348428;32;20196;-64
2022/07/13 06:18:26;;;;;;;0.50;0.50;;;;;;;19.32;71.31;96109.97;4346420;32;20184;-64
2022/07/13 06:20:52;;;;;;;4.30;0.73;;;;;;;19.40;71.03;96104.50;4369588;32;20188;-63
2022/07/13 06:23:20;;;;;;;0.30;0.30;;;;;;;19.51;70.22;96102.25;4377379;32;20203;-64
2022/07/13 06:25:47;;;;;;;1.03;0.83;;;;;;;19.59;68.49;96111.34;4325931;32;20253;-64
2022/07/13 06:28:14;;;;;;;0.70;0.70;;;;;;;19.69;69.22;96111.72;4304653;32;20194;-64
2022/07/13 06:30:41;;;;;;;0.33;0.33;;;;;;;19.74;69.09;96113.44;4364537;32;20235;-64
2022/07/13 06:33:06;;;;;;;0.20;0.20;;;;;;;19.85;67.81;96115.34;4367117;32;20200;-64
2022/07/13 06:35:36;;;;;;;0.33;0.33;;;;;;;19.97;67.92;96111.09;4328767;32;20192;-64
2022/07/13 06:38:04;;;;;;;0.10;0.10;;;;;;;20.08;67.45;96110.34;4325917;32;20243;-64
2022/07/13 06:40:31;;;;;;;0.33;0.33;;;;;;;20.17;67.51;96113.72;4335865;32;20202;-64
2022/07/13 06:42:56;;;;;;;0.33;0.33;;;;;;;20.30;66.71;96111.06;4346280;32;20184;-63
2022/07/13 06:45:22;;;;;;;0.70;0.30;;;;;;;20.39;66.96;96111.75;4369011;32;20243;-63
2022/07/13 06:47:52;;;;;;;0.10;0.10;;;;;;;20.46;66.43;96106.59;4348887;32;20200;-63
2022/07/13 06:50:21;;;;;;;0.43;0.43;;;;;;;20.52;65.96;96110.66;4330135;32;20298;-63
2022/07/13 06:52:47;;;;;;;0.30;0.30;;;;;;;20.64;66.25;96101.75;4354730;32;20251;-63
2022/07/13 06:55:15;;;;;;;0.27;0.27;;;;;;;20.72;65.27;96108.94;4331318;32;20209;-64
2022/07/13 06:57:41;;;;;;;0.17;0.17;;;;;;;20.82;65.15;96111.19;4340220;32;20210;-64
2022/07/13 07:00:14;;;;;;;0.53;0.53;;;;;;;20.94;65.34;96100.38;4361059;32;20193;-64
2022/07/13 07:02:41;;;;;;;1.00;0.90;;;;;;;21.02;65.35;96102.16;4334892;32;20209;-66
2022/07/13 07:05:09;;;;;;;0.33;0.33;;;;;;;21.01;65.59;96097.09;4346124;32;20230;-66
2022/07/13 07:07:40;;;;;;;2.10;0.50;;;;;;;21.15;64.53;96101.00;4361928;32;20192;-67
2022/07/13 07:10:18;;;;;;;0.20;0.20;;;;;;;21.19;64.42;96096.50;4367844;32;20216;-63
2022/07/13 07:12:44;;;;;;;0.33;0.33;;;;;;;21.27;63.47;96102.91;4351574;32;20258;-64
2022/07/13 07:15:12;;;;;;;0.23;0.23;;;;;;;21.34;64.61;96105.81;4344940;32;20205;-65
2022/07/13 07:17:49;;;;;;;0.40;0.40;;;;;;;21.64;62.91;96100.84;4327468;32;20268;-66
2022/07/13 07:20:17;;;;;;;0.87;0.67;;;;;;;22.00;61.55;96097.22;4342044;32;20266;-67
2022/07/13 07:22:45;;;;;;;0.87;0.87;;;;;;;22.05;60.75;96104.25;4357676;32;20243;-67
2022/07/13 07:25:11;;;;;;;0.73;0.73;;;;;;;22.02;59.90;96105.75;4336132;32;20347;-66
2022/07/13 07:27:40;;;;;;;1.20;0.83;;;;;;;22.04;57.45;96108.09;4356140;32;20296;-65
2022/07/13 07:30:15;;;;;;;3.30;1.43;;;;;;;21.97;57.89;96116.00;4350851;32;20195;-67
2022/07/13 07:32:42;;;;;;;9.67;8.83;;;;;;;21.98;59.53;96110.25;4361135;32;20249;-64
2022/07/13 07:35:08;;;;;;;38.27;26.10;;;;;;;22.02;56.71;96115.78;4370950;32;20189;-63
2022/07/13 07:37:34;;;;;;;3.97;1.37;;;;;;;21.68;66.83;96112.53;4359250;32;20263;-64
2022/07/13 07:40:00;;;;;;;4.23;3.50;;;;;;;21.58;59.19;96108.44;4371145;32;20244;-64
2022/07/13 07:42:29;;;;;;;2.43;1.00;;;;;;;21.66;58.41;96114.00;4359565;32;20263;-64
2022/07/13 07:44:56;;;;;;;0.27;0.27;;;;;;;21.75;54.67;96118.16;4357092;32;20188;-64
2022/07/13 07:47:26;;;;;;;1.40;0.53;;;;;;;21.86;53.69;96113.78;4350334;32;20262;-65
2022/07/13 07:49:55;;;;;;;2.17;1.53;;;;;;;21.97;50.15;96114.09;4357691;32;20271;-65
2022/07/13 07:52:22;;;;;;;0.80;0.80;;;;;;;22.04;51.95;96103.47;4353165;32;20199;-64
2022/07/13 07:54:48;;;;;;;5.13;4.73;;;;;;;22.09;48.62;96097.81;4367139;32;20238;-64
2022/07/13 07:57:14;;;;;;;0.30;0.30;;;;;;;22.23;50.49;96100.09;4364229;32;20220;-64
2022/07/13 07:59:41;;;;;;;0.10;0.10;;;;;;;22.34;46.10;96101.13;4327856;32;20193;-65
2022/07/13 08:02:08;;;;;;;0.00;0.00;;;;;;;22.44;46.24;96095.22;4333512;32;20207;-65
2022/07/13 08:04:35;;;;;;;0.20;0.20;;;;;;;22.47;46.62;96099.91;4354688;32;20244;-64
2022/07/13 08:07:04;;;;;;;0.03;0.00;;;;;;;22.60;46.66;96104.09;4369988;32;20199;-51
2022/07/13 08:09:30;;;;;;;0.30;0.30;;;;;;;22.59;47.75;96089.00;4365443;32;20180;-52
2022/07/13 08:11:58;;;;;;;0.00;0.00;;;;;;;22.49;47.95;96092.22;4341822;32;20221;-50
2022/07/13 08:14:24;;;;;;;0.10;0.10;;;;;;;22.48;46.21;96087.94;4366362;32;20193;-50
2022/07/13 08:16:49;;;;;;;0.10;0.10;;;;;;;22.47;46.45;96086.38;4366702;32;20201;-50
2022/07/13 08:19:17;;;;;;;0.30;0.30;;;;;;;22.47;47.56;96089.09;4325177;32;20289;-50
2022/07/13 08:21:44;;;;;;;0.00;0.00;;;;;;;22.54;46.90;96099.28;4369468;32;20168;-51
2022/07/13 08:24:11;;;;;;;0.30;0.30;;;;;;;22.55;46.82;96096.25;4364680;32;20205;-49
2022/07/13 08:26:38;;;;;;;0.20;0.20;;;;;;;22.58;46.44;96100.97;4361723;32;20189;-51
2022/07/13 08:29:05;;;;;;;0.20;0.20;;;;;;;22.59;48.44;96096.34;4370334;32;20219;-51
2022/07/13 08:31:31;;;;;;;0.20;0.20;;;;;;;22.59;48.56;96090.91;4356515;32;20210;-49
2022/07/13 08:39:29;;;;;;;0.53;0.53;;;;;;;22.73;47.18;96098.56;4358619;32;20261;-50
2022/07/13 08:42:00;;;;;;;0.40;0.40;;;;;;;22.85;45.04;96101.22;4363910;32;20200;-52
2022/07/13 08:44:28;;;;;;;0.10;0.10;;;;;;;22.95;44.16;96096.03;4347445;32;20208;-52
2022/07/13 08:46:57;;;;;;;4.40;4.10;;;;;;;22.96;43.72;96104.94;4361802;32;20250;-49
2022/07/13 08:49:29;;;;;;;3.37;3.07;;;;;;;22.99;42.72;96098.03;4378888;32;20245;-50
2022/07/13 08:51:56;;;;;;;5.83;5.00;;;;;;;22.96;43.67;96094.09;4361808;32;20196;-51
2022/07/13 08:54:23;;;;;;;0.67;0.67;;;;;;;22.97;43.73;96084.84;4378224;32;20184;-50
2022/07/13 08:56:51;;;;;;;3.07;2.83;;;;;;;22.98;43.89;96091.81;4337229;32;20188;-50
2022/07/13 08:59:21;;;;;;;3.83;3.47;;;;;;;22.93;47.98;96094.81;4342181;32;20185;-50
2022/07/13 09:01:46;;;;;;;3.83;2.70;;;;;;;22.98;45.08;96086.41;4322911;32;20283;-48
2022/07/13 09:04:12;;;;;;;4.73;4.33;;;;;;;22.95;47.13;96087.91;4357276;32;20223;-54
2022/07/13 09:06:45;;;;;;;0.67;0.67;;;;;;;22.97;45.34;96090.25;4368029;32;20189;-51
2022/07/13 09:09:32;;;;;;;6.53;5.83;;;;;;;23.17;43.82;96093.78;4355451;32;20271;-50
2022/07/13 09:12:20;;;;;;;3.27;3.00;;;;;;;23.28;44.09;96092.84;4370136;32;20201;-52
2022/07/13 09:15:06;;;;;;;2.03;1.93;;;;;;;23.15;45.22;96091.41;4370052;32;20219;-53
2022/07/13 09:17:42;;;;;;;1.53;1.43;;;;;;;23.21;46.37;96087.28;4357583;32;20189;-54
2022/07/13 09:20:20;;;;;;;4.07;3.20;;;;;;;23.33;44.40;96085.56;4354802;32;20185;-52
2022/07/13 09:22:48;;;;;;;1.43;1.43;;;;;;;23.29;45.97;96088.22;4327208;32;20288;-51
2022/07/13 09:25:33;;;;;;;0.20;0.20;;;;;;;23.32;44.91;96087.50;4352798;32;20246;-53
2022/07/13 09:28:08;;;;;;;0.30;0.30;;;;;;;23.52;43.32;96099.16;4375906;32;20181;-51
2022/07/13 09:30:45;;;;;;;0.30;0.30;;;;;;;23.74;37.93;96095.72;4348196;32;20306;-51
2022/07/13 09:33:13;;;;;;;0.00;0.00;;;;;;;23.77;39.17;96092.28;4374412;32;20197;-63
2022/07/13 09:35:46;;;;;;;0.10;0.10;;;;;;;23.67;39.80;96092.09;4367040;32;20205;-62
2022/07/13 09:38:36;;;;;;;0.20;0.20;;;;;;;23.77;37.73;96089.56;4369264;32;20184;-63
2022/07/13 09:41:23;;;;;;;0.40;0.27;;;;;;;23.85;37.80;96093.22;4332866;32;20173;-64
2022/07/13 09:47:09;;;;;;;0.27;0.27;;;;;;;24.05;38.47;96102.09;4277709;32;20297;-63
2022/07/13 09:49:46;;;;;;;0.17;0.17;;;;;;;24.27;40.04;96095.91;4303756;32;20231;-64
2022/07/13 09:52:21;;;;;;;0.30;0.30;;;;;;;24.26;40.93;96100.56;4291262;33;20211;-62
2022/07/13 09:54:51;;;;;;;0.23;0.23;;;;;;;24.51;40.43;96094.75;4318961;32;20275;-62
2022/07/13 09:57:22;;;;;;;1.00;0.50;;;;;;;24.57;41.91;96093.28;4324026;32;20238;-63
2022/07/13 09:59:51;;;;;;;0.30;0.30;;;;;;;24.61;40.50;96096.84;4282513;33;20198;-63
2022/07/13 10:02:22;;;;;;;0.20;0.20;;;;;;;24.59;40.64;96091.78;4335735;32;20308;-62
2022/07/13 10:04:49;;;;;;;0.30;0.30;;;;;;;24.67;40.77;96084.53;4304462;32;20273;-63
2022/07/13 10:07:16;;;;;;;0.40;0.40;;;;;;;24.77;39.77;96091.25;4318791;32;20212;-63
2022/07/13 10:09:46;;;;;;;0.20;0.20;;;;;;;24.87;39.59;96088.72;4295502;32;20285;-63
2022/07/13 10:12:13;;;;;;;0.00;0.00;;;;;;;24.84;40.48;96091.37;4363174;32;20185;-64
2022/07/13 10:14:40;;;;;;;0.27;0.27;;;;;;;24.81;40.14;96081.22;4370824;32;20210;-64
2022/07/13 10:17:18;;;;;;;0.10;0.10;;;;;;;24.71;41.65;96084.59;4365915;32;20195;-63
2022/07/13 10:20:00;;;;;;;0.10;0.10;;;;;;;24.72;39.63;96081.50;4342794;32;20297;-64
2022/07/13 10:22:39;;;;;;;0.20;0.20;;;;;;;24.81;39.03;96084.72;4335623;32;20238;-63
2022/07/13 10:25:06;;;;;;;1.40;0.67;;;;;;;24.92;38.83;96082.97;4366123;32;20235;-64
2022/07/13 10:27:36;;;;;;;1.53;1.07;;;;;;;25.03;38.31;96085.84;4375932;32;20184;-64
2022/07/13 10:30:33;;;;;;;9.20;8.33;;;;;;;25.11;38.64;96084.03;4359882;32;20197;-64
2022/07/13 10:33:20;;;;;;;0.33;0.33;;;;;;;25.15;38.06;96084.84;4349238;32;20234;-64
2022/07/13 10:35:57;;;;;;;0.10;0.10;;;;;;;25.22;37.61;96085.72;4360069;32;20192;-64
2022/07/13 10:39:02;;;;;;;2.00;0.93;;;;;;;25.26;38.08;96081.09;4364088;32;20208;-64
2022/07/13 10:41:29;;;;;;;0.57;0.57;;;;;;;25.37;37.17;96080.44;4351406;32;20214;-64
2022/07/13 10:44:49;;;;;;;0.17;0.17;;;;;;;25.59;37.01;96082.25;4368741;32;20228;-64
2022/07/13 10:47:19;;;;;;;0.57;0.57;;;;;;;25.73;37.16;96085.19;4331179;32;20238;-64
2022/07/13 10:49:52;;;;;;;0.30;0.30;;;;;;;25.76;37.65;96086.38;4368196;32;20184;-64
2022/07/13 10:52:27;;;;;;;0.20;0.20;;;;;;;25.82;37.62;96084.88;4354152;32;20477;-64
2022/07/13 10:55:09;;;;;;;0.60;0.60;;;;;;;25.84;38.56;96077.91;4312185;32;20240;-64
2022/07/13 10:57:43;;;;;;;0.70;0.70;;;;;;;25.81;37.84;96080.59;4369469;32;20306;-64
2022/07/13 11:00:28;;;;;;;1.07;0.57;;;;;;;25.75;38.17;96087.53;4339954;32;20199;-64
2022/07/13 11:03:04;;;;;;;0.10;0.10;;;;;;;25.78;37.49;96082.13;4350371;32;20188;-64
2022/07/13 11:05:38;;;;;;;0.40;0.40;;;;;;;25.79;37.68;96080.16;4358626;32;20247;-63
2022/07/13 11:08:14;;;;;;;0.30;0.27;;;;;;;25.65;38.38;96081.59;4332103;32;20265;-64
2022/07/13 11:10:42;;;;;;;0.87;0.47;;;;;;;25.59;38.33;96071.38;4345126;32;20180;-64
2022/07/13 11:13:28;;;;;;;0.93;0.53;;;;;;;25.49;38.32;96066.63;4319700;32;20197;-64
2022/07/13 11:15:55;;;;;;;0.20;0.20;;;;;;;25.43;39.03;96063.44;4331638;32;20234;-64
2022/07/13 11:18:35;;;;;;;0.10;0.10;;;;;;;25.44;39.00;96056.09;4359308;32;20192;-64
2022/07/13 11:21:16;;;;;;;0.40;0.40;;;;;;;25.40;39.22;96047.88;4350940;32;20193;-64
2022/07/13 11:26:56;;;;;;;0.10;0.10;;;;;;;25.62;39.01;96054.34;4371859;32;20357;-64
2022/07/13 11:29:50;;;;;;;0.20;0.20;;;;;;;25.63;39.25;96045.06;4354347;32;20295;-65
2022/07/13 11:32:20;;;;;;;0.13;0.13;;;;;;;25.57;39.87;96049.22;4342173;32;20262;-64
2022/07/13 11:34:47;;;;;;;0.30;0.30;;;;;;;25.58;37.90;96042.63;4319957;32;20201;-63
2022/07/13 11:37:25;;;;;;;0.30;0.30;;;;;;;25.76;38.36;96046.38;4359815;32;20193;-63
2022/07/13 11:39:51;;;;;;;0.10;0.10;;;;;;;25.83;38.96;96042.94;4368465;32;20207;-65
2022/07/13 11:42:22;;;;;;;0.43;0.43;;;;;;;25.84;39.93;96042.56;4342675;32;20309;-64
2022/07/13 11:44:52;;;;;;;0.07;0.07;;;;;;;25.80;39.55;96036.31;4346665;32;20199;-63
2022/07/13 11:47:19;;;;;;;1.03;1.00;;;;;;;25.78;38.22;96037.81;4321559;32;20241;-63
2022/07/13 11:49:50;;;;;;;0.20;0.20;;;;;;;25.97;38.26;96034.94;4366452;32;20249;-63
2022/07/13 11:52:19;;;;;;;1.13;1.03;;;;;;;25.93;38.48;96037.59;4351324;32;20189;-65
2022/07/13 11:55:06;;;;;;;0.10;0.10;;;;;;;25.97;38.58;96043.09;4335532;32;20204;-65
2022/07/13 11:57:33;;;;;;;0.40;0.40;;;;;;;26.08;38.17;96032.28;4313369;32;20235;-65